sensor_id;sensor_type;location;lat;lon;timestamp;P1;durP1;ratioP1;P2;durP2;ratioP2
39792;SDS011;26080;42.264;24.536;2022-09-09T00:06:55;2.35;;;1.42;;
39792;SDS011;26080;42.264;24.536;2022-09-09T00:09:24;1.40;;;1.27;;
39792;SDS011;26080;42.264;24.536;2022-09-09T00:12:02;0.80;;;0.80;;
39792;SDS011;26080;42.264;24.536;2022-09-09T00:17:30;2.45;;;1.65;;
39792;SDS011;26080;42.264;24.536;2022-09-09T00:20:03;2.40;;;1.15;;
39792;SDS011;26080;42.264;24.536;2022-09-09T00:22:57;1.83;;;1.55;;
39792;SDS011;26080;42.264;24.536;2022-09-09T00:25:33;1.13;;;1.02;;
39792;SDS011;26080;42.264;24.536;2022-09-09T00:28:10;1.05;;;0.95;;
39792;SDS011;26080;42.264;24.536;2022-09-09T00:30:44;2.88;;;1.35;;
39792;SDS011;26080;42.264;24.536;2022-09-09T00:33:12;2.15;;;1.35;;
39792;SDS011;26080;42.264;24.536;2022-09-09T00:35:50;1.92;;;1.05;;
39792;SDS011;26080;42.264;24.536;2022-09-09T00:38:28;1.98;;;1.40;;
39792;SDS011;26080;42.264;24.536;2022-09-09T00:43:57;2.15;;;1.20;;
39792;SDS011;26080;42.264;24.536;2022-09-09T00:57:21;1.23;;;0.95;;
39792;SDS011;26080;42.264;24.536;2022-09-09T01:05:59;1.20;;;0.85;;
39792;SDS011;26080;42.264;24.536;2022-09-09T01:12:01;1.15;;;0.80;;
39792;SDS011;26080;42.264;24.536;2022-09-09T01:16:58;0.80;;;0.80;;
39792;SDS011;26080;42.264;24.536;2022-09-09T01:19:40;3.47;;;1.60;;
39792;SDS011;26080;42.264;24.536;2022-09-09T01:27:38;1.30;;;1.08;;
39792;SDS011;26080;42.264;24.536;2022-09-09T01:30:10;2.85;;;1.02;;
39792;SDS011;26080;42.264;24.536;2022-09-09T01:32:48;3.53;;;1.67;;
39792;SDS011;26080;42.264;24.536;2022-09-09T01:35:27;1.40;;;0.98;;
39792;SDS011;26080;42.264;24.536;2022-09-09T01:37:55;1.75;;;0.70;;
39792;SDS011;26080;42.264;24.536;2022-09-09T01:40:20;3.45;;;1.33;;
39792;SDS011;26080;42.264;24.536;2022-09-09T01:42:46;1.52;;;1.05;;
39792;SDS011;26080;42.264;24.536;2022-09-09T01:45:12;1.95;;;1.65;;
39792;SDS011;26080;42.264;24.536;2022-09-09T01:47:38;1.00;;;0.93;;
39792;SDS011;26080;42.264;24.536;2022-09-09T01:50:03;9.82;;;1.38;;
39792;SDS011;26080;42.264;24.536;2022-09-09T01:52:30;1.85;;;1.25;;
39792;SDS011;26080;42.264;24.536;2022-09-09T01:54:58;1.52;;;1.42;;
39792;SDS011;26080;42.264;24.536;2022-09-09T01:57:25;2.28;;;1.10;;
39792;SDS011;26080;42.264;24.536;2022-09-09T02:00:06;1.45;;;0.98;;
39792;SDS011;26080;42.264;24.536;2022-09-09T02:05:38;1.10;;;0.85;;
39792;SDS011;26080;42.264;24.536;2022-09-09T02:08:08;1.65;;;1.40;;
39792;SDS011;26080;42.264;24.536;2022-09-09T02:13:17;2.35;;;1.67;;
39792;SDS011;26080;42.264;24.536;2022-09-09T02:15:47;2.20;;;1.55;;
39792;SDS011;26080;42.264;24.536;2022-09-09T02:18:16;1.00;;;0.90;;
39792;SDS011;26080;42.264;24.536;2022-09-09T02:20:48;1.50;;;1.27;;
39792;SDS011;26080;42.264;24.536;2022-09-09T02:23:15;2.58;;;1.48;;
39792;SDS011;26080;42.264;24.536;2022-09-09T02:25:42;2.05;;;1.40;;
39792;SDS011;26080;42.264;24.536;2022-09-09T02:28:09;0.60;;;0.45;;
39792;SDS011;26080;42.264;24.536;2022-09-09T02:30:37;0.70;;;0.52;;
39792;SDS011;26080;42.264;24.536;2022-09-09T02:33:05;1.02;;;0.73;;
39792;SDS011;26080;42.264;24.536;2022-09-09T02:35:35;0.82;;;0.82;;
39792;SDS011;26080;42.264;24.536;2022-09-09T02:38:03;1.33;;;1.02;;
39792;SDS011;26080;42.264;24.536;2022-09-09T02:40:32;1.75;;;1.30;;
39792;SDS011;26080;42.264;24.536;2022-09-09T02:42:58;2.75;;;1.95;;
39792;SDS011;26080;42.264;24.536;2022-09-09T02:45:25;3.70;;;1.15;;
39792;SDS011;26080;42.264;24.536;2022-09-09T02:50:57;1.45;;;1.35;;
39792;SDS011;26080;42.264;24.536;2022-09-09T02:54:15;2.60;;;1.42;;
39792;SDS011;26080;42.264;24.536;2022-09-09T02:56:25;1.45;;;1.20;;
39792;SDS011;26080;42.264;24.536;2022-09-09T02:58:55;2.60;;;1.75;;
39792;SDS011;26080;42.264;24.536;2022-09-09T03:01:20;2.85;;;1.27;;
39792;SDS011;26080;42.264;24.536;2022-09-09T03:03:46;1.45;;;0.98;;
39792;SDS011;26080;42.264;24.536;2022-09-09T03:06:11;1.65;;;0.75;;
39792;SDS011;26080;42.264;24.536;2022-09-09T03:08:37;6.80;;;2.20;;
39792;SDS011;26080;42.264;24.536;2022-09-09T03:11:03;1.40;;;1.15;;
39792;SDS011;26080;42.264;24.536;2022-09-09T03:13:29;0.52;;;0.52;;
39792;SDS011;26080;42.264;24.536;2022-09-09T03:15:54;2.28;;;0.90;;
39792;SDS011;26080;42.264;24.536;2022-09-09T03:18:20;1.90;;;0.98;;
39792;SDS011;26080;42.264;24.536;2022-09-09T03:20:46;1.90;;;1.05;;
39792;SDS011;26080;42.264;24.536;2022-09-09T03:23:13;1.02;;;0.93;;
39792;SDS011;26080;42.264;24.536;2022-09-09T03:25:39;1.65;;;0.70;;
39792;SDS011;26080;42.264;24.536;2022-09-09T03:28:11;2.65;;;2.00;;
39792;SDS011;26080;42.264;24.536;2022-09-09T03:30:36;2.47;;;0.90;;
39792;SDS011;26080;42.264;24.536;2022-09-09T03:33:02;1.73;;;1.27;;
39792;SDS011;26080;42.264;24.536;2022-09-09T03:35:28;1.02;;;0.90;;
39792;SDS011;26080;42.264;24.536;2022-09-09T03:37:54;6.80;;;2.10;;
39792;SDS011;26080;42.264;24.536;2022-09-09T03:40:20;2.10;;;0.82;;
39792;SDS011;26080;42.264;24.536;2022-09-09T03:42:45;1.13;;;1.00;;
39792;SDS011;26080;42.264;24.536;2022-09-09T03:45:11;0.65;;;0.60;;
39792;SDS011;26080;42.264;24.536;2022-09-09T03:47:37;0.52;;;0.52;;
39792;SDS011;26080;42.264;24.536;2022-09-09T03:50:03;1.58;;;1.08;;
39792;SDS011;26080;42.264;24.536;2022-09-09T03:52:34;1.38;;;0.88;;
39792;SDS011;26080;42.264;24.536;2022-09-09T03:55:00;1.58;;;1.20;;
39792;SDS011;26080;42.264;24.536;2022-09-09T03:57:26;1.23;;;0.95;;
39792;SDS011;26080;42.264;24.536;2022-09-09T03:59:52;1.55;;;0.98;;
39792;SDS011;26080;42.264;24.536;2022-09-09T04:02:17;1.42;;;1.02;;
39792;SDS011;26080;42.264;24.536;2022-09-09T04:04:43;1.52;;;1.40;;
39792;SDS011;26080;42.264;24.536;2022-09-09T04:07:08;1.25;;;1.15;;
39792;SDS011;26080;42.264;24.536;2022-09-09T04:09:34;3.85;;;1.65;;
39792;SDS011;26080;42.264;24.536;2022-09-09T04:11:59;5.53;;;2.30;;
39792;SDS011;26080;42.264;24.536;2022-09-09T04:14:25;5.78;;;2.67;;
39792;SDS011;26080;42.264;24.536;2022-09-09T04:16:53;1.80;;;0.95;;
39792;SDS011;26080;42.264;24.536;2022-09-09T04:19:19;3.85;;;1.63;;
39792;SDS011;26080;42.264;24.536;2022-09-09T04:21:44;6.68;;;1.67;;
39792;SDS011;26080;42.264;24.536;2022-09-09T04:24:10;1.42;;;1.15;;
39792;SDS011;26080;42.264;24.536;2022-09-09T04:26:35;1.88;;;1.27;;
39792;SDS011;26080;42.264;24.536;2022-09-09T04:29:02;1.67;;;1.38;;
39792;SDS011;26080;42.264;24.536;2022-09-09T04:31:29;3.38;;;1.58;;
39792;SDS011;26080;42.264;24.536;2022-09-09T04:33:55;3.30;;;1.60;;
39792;SDS011;26080;42.264;24.536;2022-09-09T04:36:21;1.58;;;1.40;;
39792;SDS011;26080;42.264;24.536;2022-09-09T04:38:46;4.38;;;1.23;;
39792;SDS011;26080;42.264;24.536;2022-09-09T04:41:13;2.55;;;1.63;;
39792;SDS011;26080;42.264;24.536;2022-09-09T04:43:39;5.80;;;2.75;;
39792;SDS011;26080;42.264;24.536;2022-09-09T04:46:05;2.08;;;1.83;;
39792;SDS011;26080;42.264;24.536;2022-09-09T04:48:31;2.05;;;0.77;;
39792;SDS011;26080;42.264;24.536;2022-09-09T04:51:14;3.05;;;1.77;;
39792;SDS011;26080;42.264;24.536;2022-09-09T04:53:40;1.67;;;1.33;;
39792;SDS011;26080;42.264;24.536;2022-09-09T04:58:38;4.22;;;1.85;;
39792;SDS011;26080;42.264;24.536;2022-09-09T05:01:17;1.17;;;0.80;;
39792;SDS011;26080;42.264;24.536;2022-09-09T05:03:44;4.68;;;2.03;;
39792;SDS011;26080;42.264;24.536;2022-09-09T05:06:11;1.70;;;1.40;;
39792;SDS011;26080;42.264;24.536;2022-09-09T05:08:39;2.03;;;1.58;;
39792;SDS011;26080;42.264;24.536;2022-09-09T05:11:27;5.35;;;1.58;;
39792;SDS011;26080;42.264;24.536;2022-09-09T05:13:52;1.67;;;1.10;;
39792;SDS011;26080;42.264;24.536;2022-09-09T05:16:19;16.50;;;1.33;;
39792;SDS011;26080;42.264;24.536;2022-09-09T05:18:45;4.32;;;2.17;;
39792;SDS011;26080;42.264;24.536;2022-09-09T05:21:11;2.33;;;1.10;;
39792;SDS011;26080;42.264;24.536;2022-09-09T05:23:38;3.20;;;1.35;;
39792;SDS011;26080;42.264;24.536;2022-09-09T05:26:04;11.50;;;1.10;;
39792;SDS011;26080;42.264;24.536;2022-09-09T05:28:30;0.73;;;0.50;;
39792;SDS011;26080;42.264;24.536;2022-09-09T05:31:00;11.00;;;1.95;;
39792;SDS011;26080;42.264;24.536;2022-09-09T05:33:30;4.28;;;1.45;;
39792;SDS011;26080;42.264;24.536;2022-09-09T05:36:00;2.72;;;0.95;;
39792;SDS011;26080;42.264;24.536;2022-09-09T05:38:28;0.40;;;0.40;;
39792;SDS011;26080;42.264;24.536;2022-09-09T05:40:54;0.40;;;0.40;;
39792;SDS011;26080;42.264;24.536;2022-09-09T05:43:22;2.30;;;0.75;;
39792;SDS011;26080;42.264;24.536;2022-09-09T05:45:48;0.75;;;0.75;;
39792;SDS011;26080;42.264;24.536;2022-09-09T05:48:16;0.57;;;0.45;;
39792;SDS011;26080;42.264;24.536;2022-09-09T05:50:42;11.90;;;1.02;;
39792;SDS011;26080;42.264;24.536;2022-09-09T05:53:08;0.95;;;0.50;;
39792;SDS011;26080;42.264;24.536;2022-09-09T05:55:35;0.95;;;0.75;;
39792;SDS011;26080;42.264;24.536;2022-09-09T05:58:01;0.90;;;0.75;;
39792;SDS011;26080;42.264;24.536;2022-09-09T06:00:26;2.38;;;0.82;;
39792;SDS011;26080;42.264;24.536;2022-09-09T06:02:52;1.20;;;1.00;;
39792;SDS011;26080;42.264;24.536;2022-09-09T06:05:18;1.05;;;0.50;;
39792;SDS011;26080;42.264;24.536;2022-09-09T06:07:44;0.40;;;0.40;;
39792;SDS011;26080;42.264;24.536;2022-09-09T06:10:10;1.63;;;0.70;;
39792;SDS011;26080;42.264;24.536;2022-09-09T06:12:38;1.95;;;1.08;;
39792;SDS011;26080;42.264;24.536;2022-09-09T06:15:04;0.63;;;0.40;;
39792;SDS011;26080;42.264;24.536;2022-09-09T06:17:30;0.43;;;0.40;;
39792;SDS011;26080;42.264;24.536;2022-09-09T06:19:55;0.98;;;0.70;;
39792;SDS011;26080;42.264;24.536;2022-09-09T06:22:21;0.73;;;0.70;;
39792;SDS011;26080;42.264;24.536;2022-09-09T06:24:46;3.67;;;1.80;;
39792;SDS011;26080;42.264;24.536;2022-09-09T06:27:12;0.77;;;0.60;;
39792;SDS011;26080;42.264;24.536;2022-09-09T06:29:38;0.73;;;0.60;;
39792;SDS011;26080;42.264;24.536;2022-09-09T06:32:04;0.90;;;0.82;;
39792;SDS011;26080;42.264;24.536;2022-09-09T06:34:30;0.47;;;0.43;;
39792;SDS011;26080;42.264;24.536;2022-09-09T06:36:55;0.47;;;0.47;;
39792;SDS011;26080;42.264;24.536;2022-09-09T06:39:22;0.80;;;0.65;;
39792;SDS011;26080;42.264;24.536;2022-09-09T06:41:48;1.02;;;0.93;;
39792;SDS011;26080;42.264;24.536;2022-09-09T06:44:14;1.65;;;0.98;;
39792;SDS011;26080;42.264;24.536;2022-09-09T06:46:40;0.93;;;0.80;;
39792;SDS011;26080;42.264;24.536;2022-09-09T06:49:07;1.25;;;0.82;;
39792;SDS011;26080;42.264;24.536;2022-09-09T06:51:34;0.38;;;0.30;;
39792;SDS011;26080;42.264;24.536;2022-09-09T06:54:01;1.13;;;1.02;;
39792;SDS011;26080;42.264;24.536;2022-09-09T06:56:28;1.52;;;0.47;;
39792;SDS011;26080;42.264;24.536;2022-09-09T06:59:00;0.77;;;0.75;;
39792;SDS011;26080;42.264;24.536;2022-09-09T07:01:32;3.20;;;0.98;;
39792;SDS011;26080;42.264;24.536;2022-09-09T07:03:59;1.80;;;0.93;;
39792;SDS011;26080;42.264;24.536;2022-09-09T07:06:30;1.65;;;1.15;;
39792;SDS011;26080;42.264;24.536;2022-09-09T07:09:03;0.45;;;0.38;;
39792;SDS011;26080;42.264;24.536;2022-09-09T07:11:32;1.15;;;1.05;;
39792;SDS011;26080;42.264;24.536;2022-09-09T07:13:59;0.82;;;0.57;;
39792;SDS011;26080;42.264;24.536;2022-09-09T07:16:26;0.90;;;0.75;;
39792;SDS011;26080;42.264;24.536;2022-09-09T07:18:56;0.98;;;0.63;;
39792;SDS011;26080;42.264;24.536;2022-09-09T07:21:25;0.50;;;0.50;;
39792;SDS011;26080;42.264;24.536;2022-09-09T07:23:52;3.30;;;1.05;;
39792;SDS011;26080;42.264;24.536;2022-09-09T07:26:19;1.25;;;0.70;;
39792;SDS011;26080;42.264;24.536;2022-09-09T07:28:47;12.90;;;1.02;;
39792;SDS011;26080;42.264;24.536;2022-09-09T07:31:23;0.60;;;0.60;;
39792;SDS011;26080;42.264;24.536;2022-09-09T07:33:56;1.05;;;0.82;;
39792;SDS011;26080;42.264;24.536;2022-09-09T07:36:26;1.73;;;0.57;;
39792;SDS011;26080;42.264;24.536;2022-09-09T07:38:53;2.70;;;0.85;;
39792;SDS011;26080;42.264;24.536;2022-09-09T07:43:50;2.75;;;0.60;;
39792;SDS011;26080;42.264;24.536;2022-09-09T07:46:18;2.22;;;0.60;;
39792;SDS011;26080;42.264;24.536;2022-09-09T07:48:45;0.85;;;0.70;;
39792;SDS011;26080;42.264;24.536;2022-09-09T07:51:14;3.30;;;0.65;;
39792;SDS011;26080;42.264;24.536;2022-09-09T07:53:45;2.40;;;1.30;;
39792;SDS011;26080;42.264;24.536;2022-09-09T07:56:15;1.25;;;0.85;;
39792;SDS011;26080;42.264;24.536;2022-09-09T07:58:44;2.78;;;1.33;;
39792;SDS011;26080;42.264;24.536;2022-09-09T08:01:32;1.92;;;0.98;;
39792;SDS011;26080;42.264;24.536;2022-09-09T08:04:02;1.50;;;0.80;;
39792;SDS011;26080;42.264;24.536;2022-09-09T08:06:31;0.75;;;0.50;;
39792;SDS011;26080;42.264;24.536;2022-09-09T08:09:00;3.13;;;1.23;;
39792;SDS011;26080;42.264;24.536;2022-09-09T08:11:26;1.48;;;0.80;;
39792;SDS011;26080;42.264;24.536;2022-09-09T08:13:53;1.83;;;0.90;;
39792;SDS011;26080;42.264;24.536;2022-09-09T08:16:20;1.35;;;0.85;;
39792;SDS011;26080;42.264;24.536;2022-09-09T08:18:50;1.25;;;1.02;;
39792;SDS011;26080;42.264;24.536;2022-09-09T08:21:18;3.40;;;0.80;;
39792;SDS011;26080;42.264;24.536;2022-09-09T08:23:46;2.30;;;1.08;;
39792;SDS011;26080;42.264;24.536;2022-09-09T08:26:31;1.13;;;0.65;;
39792;SDS011;26080;42.264;24.536;2022-09-09T08:28:59;2.03;;;0.93;;
39792;SDS011;26080;42.264;24.536;2022-09-09T08:31:27;0.80;;;0.68;;
39792;SDS011;26080;42.264;24.536;2022-09-09T08:33:55;1.48;;;1.05;;
39792;SDS011;26080;42.264;24.536;2022-09-09T08:36:22;0.82;;;0.82;;
39792;SDS011;26080;42.264;24.536;2022-09-09T08:38:51;1.02;;;0.77;;
39792;SDS011;26080;42.264;24.536;2022-09-09T08:55:21;2.60;;;1.40;;
39792;SDS011;26080;42.264;24.536;2022-09-09T08:57:53;2.22;;;1.58;;
39792;SDS011;26080;42.264;24.536;2022-09-09T09:00:21;2.63;;;1.50;;
39792;SDS011;26080;42.264;24.536;2022-09-09T09:03:05;1.58;;;0.90;;
39792;SDS011;26080;42.264;24.536;2022-09-09T09:05:46;3.42;;;1.63;;
39792;SDS011;26080;42.264;24.536;2022-09-09T09:08:25;0.65;;;0.65;;
39792;SDS011;26080;42.264;24.536;2022-09-09T09:10:53;2.20;;;1.05;;
39792;SDS011;26080;42.264;24.536;2022-09-09T09:16:09;0.70;;;0.70;;
39792;SDS011;26080;42.264;24.536;2022-09-09T09:18:49;2.80;;;1.27;;
39792;SDS011;26080;42.264;24.536;2022-09-09T09:21:19;2.13;;;1.17;;
39792;SDS011;26080;42.264;24.536;2022-09-09T09:23:55;2.08;;;0.60;;
39792;SDS011;26080;42.264;24.536;2022-09-09T09:26:26;1.98;;;1.33;;
39792;SDS011;26080;42.264;24.536;2022-09-09T09:28:56;1.23;;;0.75;;
39792;SDS011;26080;42.264;24.536;2022-09-09T09:31:24;1.35;;;1.00;;
39792;SDS011;26080;42.264;24.536;2022-09-09T09:33:54;1.45;;;0.75;;
39792;SDS011;26080;42.264;24.536;2022-09-09T09:36:39;1.17;;;0.80;;
39792;SDS011;26080;42.264;24.536;2022-09-09T09:39:09;1.13;;;0.88;;
39792;SDS011;26080;42.264;24.536;2022-09-09T09:41:39;19.35;;;2.03;;
39792;SDS011;26080;42.264;24.536;2022-09-09T09:49:53;2.45;;;1.55;;
39792;SDS011;26080;42.264;24.536;2022-09-09T09:52:23;6.40;;;1.75;;
39792;SDS011;26080;42.264;24.536;2022-09-09T09:54:50;3.60;;;1.15;;
39792;SDS011;26080;42.264;24.536;2022-09-09T09:57:18;1.48;;;0.93;;
39792;SDS011;26080;42.264;24.536;2022-09-09T09:59:59;4.15;;;1.02;;
39792;SDS011;26080;42.264;24.536;2022-09-09T10:02:31;0.90;;;0.65;;
39792;SDS011;26080;42.264;24.536;2022-09-09T10:07:47;0.93;;;0.85;;
39792;SDS011;26080;42.264;24.536;2022-09-09T10:10:28;2.97;;;1.25;;
39792;SDS011;26080;42.264;24.536;2022-09-09T10:18:59;1.15;;;1.00;;
39792;SDS011;26080;42.264;24.536;2022-09-09T10:29:50;2.13;;;1.48;;
39792;SDS011;26080;42.264;24.536;2022-09-09T10:43:19;1.50;;;1.00;;
39792;SDS011;26080;42.264;24.536;2022-09-09T10:51:28;1.75;;;1.55;;
39792;SDS011;26080;42.264;24.536;2022-09-09T10:56:31;2.75;;;1.88;;
39792;SDS011;26080;42.264;24.536;2022-09-09T10:58:59;2.63;;;1.60;;
39792;SDS011;26080;42.264;24.536;2022-09-09T11:06:50;1.67;;;1.00;;
39792;SDS011;26080;42.264;24.536;2022-09-09T11:09:23;2.15;;;1.15;;
39792;SDS011;26080;42.264;24.536;2022-09-09T11:11:57;2.05;;;1.48;;
39792;SDS011;26080;42.264;24.536;2022-09-09T11:17:26;2.85;;;1.70;;
39792;SDS011;26080;42.264;24.536;2022-09-09T11:20:00;3.30;;;2.13;;
39792;SDS011;26080;42.264;24.536;2022-09-09T11:25:22;3.78;;;1.48;;
39792;SDS011;26080;42.264;24.536;2022-09-09T11:30:20;1.02;;;0.93;;
39792;SDS011;26080;42.264;24.536;2022-09-09T11:41:09;12.48;;;1.70;;
39792;SDS011;26080;42.264;24.536;2022-09-09T11:43:44;2.50;;;1.33;;
39792;SDS011;26080;42.264;24.536;2022-09-09T11:46:12;5.38;;;2.10;;
39792;SDS011;26080;42.264;24.536;2022-09-09T11:48:44;2.05;;;1.38;;
39792;SDS011;26080;42.264;24.536;2022-09-09T11:56:32;2.25;;;1.00;;
39792;SDS011;26080;42.264;24.536;2022-09-09T11:59:02;2.50;;;1.57;;
39792;SDS011;26080;42.264;24.536;2022-09-09T12:04:01;1.65;;;1.40;;
39792;SDS011;26080;42.264;24.536;2022-09-09T12:06:41;5.00;;;2.30;;
39792;SDS011;26080;42.264;24.536;2022-09-09T12:12:05;1.38;;;1.25;;
39792;SDS011;26080;42.264;24.536;2022-09-09T12:19:45;9.35;;;2.20;;
39792;SDS011;26080;42.264;24.536;2022-09-09T12:25:34;1.60;;;1.13;;
39792;SDS011;26080;42.264;24.536;2022-09-09T12:28:22;6.93;;;1.60;;
39792;SDS011;26080;42.264;24.536;2022-09-09T13:47:27;1.52;;;1.20;;
39792;SDS011;26080;42.264;24.536;2022-09-09T13:49:56;1.45;;;1.35;;
39792;SDS011;26080;42.264;24.536;2022-09-09T13:52:22;1.27;;;0.88;;
39792;SDS011;26080;42.264;24.536;2022-09-09T13:54:48;4.90;;;1.80;;
39792;SDS011;26080;42.264;24.536;2022-09-09T13:57:16;3.08;;;1.85;;
39792;SDS011;26080;42.264;24.536;2022-09-09T13:59:46;5.72;;;2.03;;
39792;SDS011;26080;42.264;24.536;2022-09-09T14:02:12;2.67;;;1.67;;
39792;SDS011;26080;42.264;24.536;2022-09-09T14:04:38;1.65;;;1.55;;
39792;SDS011;26080;42.264;24.536;2022-09-09T14:07:07;2.33;;;1.55;;
39792;SDS011;26080;42.264;24.536;2022-09-09T14:09:36;1.70;;;1.40;;
39792;SDS011;26080;42.264;24.536;2022-09-09T14:12:01;1.77;;;1.30;;
39792;SDS011;26080;42.264;24.536;2022-09-09T14:14:27;3.55;;;1.90;;
39792;SDS011;26080;42.264;24.536;2022-09-09T14:16:53;1.88;;;1.40;;
39792;SDS011;26080;42.264;24.536;2022-09-09T14:19:18;5.72;;;1.50;;
39792;SDS011;26080;42.264;24.536;2022-09-09T14:21:44;13.23;;;2.55;;
39792;SDS011;26080;42.264;24.536;2022-09-09T14:24:09;6.38;;;1.83;;
39792;SDS011;26080;42.264;24.536;2022-09-09T14:26:34;3.45;;;1.98;;
39792;SDS011;26080;42.264;24.536;2022-09-09T14:29:00;3.45;;;1.50;;
39792;SDS011;26080;42.264;24.536;2022-09-09T14:31:26;6.60;;;2.97;;
39792;SDS011;26080;42.264;24.536;2022-09-09T14:33:52;3.25;;;1.85;;
39792;SDS011;26080;42.264;24.536;2022-09-09T14:36:17;2.10;;;1.73;;
39792;SDS011;26080;42.264;24.536;2022-09-09T14:38:43;28.33;;;3.03;;
39792;SDS011;26080;42.264;24.536;2022-09-09T14:41:09;3.90;;;1.80;;
39792;SDS011;26080;42.264;24.536;2022-09-09T14:43:39;4.35;;;2.22;;
39792;SDS011;26080;42.264;24.536;2022-09-09T14:46:09;4.50;;;2.60;;
39792;SDS011;26080;42.264;24.536;2022-09-09T14:48:37;8.85;;;2.95;;
39792;SDS011;26080;42.264;24.536;2022-09-09T14:51:09;2.88;;;2.03;;
39792;SDS011;26080;42.264;24.536;2022-09-09T14:53:35;3.53;;;2.28;;
39792;SDS011;26080;42.264;24.536;2022-09-09T14:56:08;2.58;;;2.20;;
39792;SDS011;26080;42.264;24.536;2022-09-09T14:58:36;3.03;;;2.47;;
39792;SDS011;26080;42.264;24.536;2022-09-09T15:01:13;13.40;;;2.67;;
39792;SDS011;26080;42.264;24.536;2022-09-09T15:03:40;2.63;;;2.03;;
39792;SDS011;26080;42.264;24.536;2022-09-09T15:06:12;2.90;;;2.00;;
39792;SDS011;26080;42.264;24.536;2022-09-09T15:08:39;1.33;;;1.23;;
39792;SDS011;26080;42.264;24.536;2022-09-09T15:11:06;2.03;;;1.15;;
39792;SDS011;26080;42.264;24.536;2022-09-09T15:13:32;10.23;;;1.58;;
39792;SDS011;26080;42.264;24.536;2022-09-09T15:16:18;2.45;;;1.50;;
39792;SDS011;26080;42.264;24.536;2022-09-09T15:18:44;3.97;;;2.25;;
39792;SDS011;26080;42.264;24.536;2022-09-09T15:21:15;7.45;;;2.10;;
39792;SDS011;26080;42.264;24.536;2022-09-09T15:26:10;4.05;;;2.50;;
39792;SDS011;26080;42.264;24.536;2022-09-09T15:28:36;2.55;;;2.13;;
39792;SDS011;26080;42.264;24.536;2022-09-09T15:31:36;1.75;;;1.45;;
39792;SDS011;26080;42.264;24.536;2022-09-09T15:33:56;3.20;;;1.85;;
39792;SDS011;26080;42.264;24.536;2022-09-09T15:36:30;4.63;;;2.05;;
39792;SDS011;26080;42.264;24.536;2022-09-09T15:39:01;2.08;;;1.45;;
39792;SDS011;26080;42.264;24.536;2022-09-09T15:41:27;2.20;;;1.27;;
39792;SDS011;26080;42.264;24.536;2022-09-09T15:43:55;1.88;;;1.30;;
39792;SDS011;26080;42.264;24.536;2022-09-09T15:48:57;1.90;;;1.33;;
39792;SDS011;26080;42.264;24.536;2022-09-09T15:51:27;13.43;;;2.28;;
39792;SDS011;26080;42.264;24.536;2022-09-09T15:53:53;3.60;;;1.55;;
39792;SDS011;26080;42.264;24.536;2022-09-09T15:56:21;11.38;;;3.80;;
39792;SDS011;26080;42.264;24.536;2022-09-09T15:58:46;2.83;;;2.17;;
39792;SDS011;26080;42.264;24.536;2022-09-09T16:01:12;9.93;;;4.43;;
39792;SDS011;26080;42.264;24.536;2022-09-09T16:03:38;3.00;;;1.63;;
39792;SDS011;26080;42.264;24.536;2022-09-09T16:06:06;5.15;;;3.13;;
39792;SDS011;26080;42.264;24.536;2022-09-09T16:08:33;7.18;;;4.90;;
39792;SDS011;26080;42.264;24.536;2022-09-09T16:11:09;10.80;;;5.32;;
39792;SDS011;26080;42.264;24.536;2022-09-09T16:13:41;8.95;;;5.45;;
39792;SDS011;26080;42.264;24.536;2022-09-09T16:16:09;14.57;;;4.05;;
39792;SDS011;26080;42.264;24.536;2022-09-09T16:18:36;6.45;;;4.25;;
39792;SDS011;26080;42.264;24.536;2022-09-09T16:21:03;9.05;;;3.65;;
39792;SDS011;26080;42.264;24.536;2022-09-09T16:23:31;4.15;;;2.42;;
39792;SDS011;26080;42.264;24.536;2022-09-09T16:26:05;3.63;;;2.10;;
39792;SDS011;26080;42.264;24.536;2022-09-09T16:28:31;2.90;;;2.50;;
39792;SDS011;26080;42.264;24.536;2022-09-09T16:30:56;11.77;;;3.85;;
39792;SDS011;26080;42.264;24.536;2022-09-09T16:33:23;4.25;;;3.30;;
39792;SDS011;26080;42.264;24.536;2022-09-09T16:35:50;10.90;;;3.30;;
39792;SDS011;26080;42.264;24.536;2022-09-09T16:38:16;7.43;;;3.97;;
39792;SDS011;26080;42.264;24.536;2022-09-09T16:40:41;7.82;;;3.95;;
39792;SDS011;26080;42.264;24.536;2022-09-09T16:43:07;16.15;;;5.63;;
39792;SDS011;26080;42.264;24.536;2022-09-09T16:45:41;10.70;;;4.88;;
39792;SDS011;26080;42.264;24.536;2022-09-09T16:48:09;8.00;;;4.95;;
39792;SDS011;26080;42.264;24.536;2022-09-09T16:50:34;11.15;;;4.50;;
39792;SDS011;26080;42.264;24.536;2022-09-09T16:53:00;4.47;;;3.15;;
39792;SDS011;26080;42.264;24.536;2022-09-09T16:55:30;6.43;;;4.85;;
39792;SDS011;26080;42.264;24.536;2022-09-09T16:57:56;4.15;;;3.08;;
39792;SDS011;26080;42.264;24.536;2022-09-09T17:00:21;3.67;;;1.92;;
39792;SDS011;26080;42.264;24.536;2022-09-09T17:02:48;2.15;;;1.15;;
39792;SDS011;26080;42.264;24.536;2022-09-09T17:05:13;2.15;;;1.83;;
39792;SDS011;26080;42.264;24.536;2022-09-09T17:07:39;4.55;;;2.53;;
39792;SDS011;26080;42.264;24.536;2022-09-09T17:10:05;8.18;;;2.08;;
39792;SDS011;26080;42.264;24.536;2022-09-09T17:12:31;4.18;;;2.35;;
39792;SDS011;26080;42.264;24.536;2022-09-09T17:14:57;17.52;;;4.40;;
39792;SDS011;26080;42.264;24.536;2022-09-09T17:17:24;20.52;;;9.02;;
39792;SDS011;26080;42.264;24.536;2022-09-09T17:19:49;4.88;;;4.22;;
39792;SDS011;26080;42.264;24.536;2022-09-09T17:22:15;8.60;;;4.70;;
39792;SDS011;26080;42.264;24.536;2022-09-09T17:24:41;10.15;;;6.72;;
39792;SDS011;26080;42.264;24.536;2022-09-09T17:27:06;8.32;;;5.43;;
39792;SDS011;26080;42.264;24.536;2022-09-09T17:29:33;11.30;;;3.85;;
39792;SDS011;26080;42.264;24.536;2022-09-09T17:32:01;12.10;;;4.03;;
39792;SDS011;26080;42.264;24.536;2022-09-09T17:34:27;13.50;;;7.63;;
39792;SDS011;26080;42.264;24.536;2022-09-09T17:36:52;19.23;;;6.43;;
39792;SDS011;26080;42.264;24.536;2022-09-09T17:39:17;11.85;;;5.13;;
39792;SDS011;26080;42.264;24.536;2022-09-09T17:41:43;12.27;;;5.35;;
39792;SDS011;26080;42.264;24.536;2022-09-09T17:44:08;3.05;;;2.50;;
39792;SDS011;26080;42.264;24.536;2022-09-09T17:46:35;4.13;;;1.65;;
39792;SDS011;26080;42.264;24.536;2022-09-09T17:49:05;13.05;;;3.95;;
39792;SDS011;26080;42.264;24.536;2022-09-09T17:51:34;6.07;;;2.03;;
39792;SDS011;26080;42.264;24.536;2022-09-09T17:54:04;3.53;;;1.30;;
39792;SDS011;26080;42.264;24.536;2022-09-09T17:56:32;4.80;;;2.25;;
39792;SDS011;26080;42.264;24.536;2022-09-09T17:59:00;3.90;;;2.00;;
39792;SDS011;26080;42.264;24.536;2022-09-09T18:01:28;9.68;;;2.13;;
39792;SDS011;26080;42.264;24.536;2022-09-09T18:03:55;1.50;;;1.40;;
39792;SDS011;26080;42.264;24.536;2022-09-09T18:06:23;3.42;;;1.70;;
39792;SDS011;26080;42.264;24.536;2022-09-09T18:08:56;6.05;;;2.55;;
39792;SDS011;26080;42.264;24.536;2022-09-09T18:11:25;7.05;;;1.63;;
39792;SDS011;26080;42.264;24.536;2022-09-09T18:13:59;2.60;;;1.55;;
39792;SDS011;26080;42.264;24.536;2022-09-09T18:16:27;3.35;;;1.98;;
39792;SDS011;26080;42.264;24.536;2022-09-09T18:18:54;2.80;;;1.50;;
39792;SDS011;26080;42.264;24.536;2022-09-09T18:21:22;3.63;;;1.70;;
39792;SDS011;26080;42.264;24.536;2022-09-09T18:23:50;3.45;;;1.20;;
39792;SDS011;26080;42.264;24.536;2022-09-09T18:26:18;3.63;;;2.30;;
39792;SDS011;26080;42.264;24.536;2022-09-09T18:28:55;2.67;;;1.17;;
39792;SDS011;26080;42.264;24.536;2022-09-09T18:31:22;1.40;;;1.10;;
39792;SDS011;26080;42.264;24.536;2022-09-09T18:33:49;2.67;;;1.60;;
39792;SDS011;26080;42.264;24.536;2022-09-09T18:36:18;1.52;;;1.35;;
39792;SDS011;26080;42.264;24.536;2022-09-09T18:38:46;2.40;;;1.20;;